Time;durP1;ratioP1;P1;durP2;ratioP2;P2;SDS_P1;SDS_P2;PMS_P1;PMS_P2;Temp;Humidity;BMP_temperature;BMP_pressure;BME280_temperature;BME280_humidity;BME280_pressure;Samples;Min_cycle;Max_cycle;Signal;HPM_P1;HPM_P2
2023/01/25 00:01:14;;;;;;;31.48;17.02;;;2.30;29.70;;;;;;7374953;19;20014;-79
2023/01/25 00:03:44;;;;;;;32.83;16.60;;;2.40;29.00;;;;;;7375218;19;20021;-79
2023/01/25 00:06:16;;;;;;;32.88;16.67;;;2.40;28.70;;;;;;7373598;19;20536;-79
2023/01/25 00:08:50;;;;;;;33.38;17.90;;;2.40;28.60;;;;;;7374446;19;20014;-79
2023/01/25 00:11:20;;;;;;;32.78;16.77;;;2.40;28.10;;;;;;7392374;19;20016;-79
2023/01/25 00:13:50;;;;;;;29.80;16.50;;;2.30;28.10;;;;;;7371249;19;20009;-79
2023/01/25 00:16:20;;;;;;;30.95;17.00;;;2.40;28.20;;;;;;7372202;19;20006;-79
2023/01/25 00:18:50;;;;;;;31.08;16.50;;;2.40;28.20;;;;;;7370555;19;20113;-79
2023/01/25 00:21:24;;;;;;;29.58;15.82;;;2.30;28.30;;;;;;7371494;19;20078;-80
2023/01/25 00:23:54;;;;;;;;;;;2.40;28.10;;;;;;7372428;19;21947;-79
2023/01/25 00:26:24;;;;;;;29.05;15.88;;;2.30;28.10;;;;;;7392267;19;19918;-79
2023/01/25 00:28:56;;;;;;;34.03;17.08;;;2.40;28.20;;;;;;7371285;19;20007;-79
2023/01/25 00:31:38;;;;;;;34.28;17.08;;;2.30;28.10;;;;;;7371798;19;20006;-79
2023/01/25 00:34:29;;;;;;;33.58;16.42;;;2.30;28.00;;;;;;7371639;19;20014;-79
2023/01/25 00:37:06;;;;;;;32.70;17.20;;;2.40;28.10;;;;;;7372380;19;20500;-78
2023/01/25 00:39:35;;;;;;;31.35;16.73;;;2.20;28.00;;;;;;7370291;19;20463;-80
2023/01/25 00:42:05;;;;;;;36.00;17.33;;;2.20;29.10;;;;;;7371334;19;20014;-80
2023/01/25 00:44:35;;;;;;;35.72;18.23;;;2.20;29.60;;;;;;7382716;19;20074;-80
2023/01/25 00:47:05;;;;;;;36.75;18.05;;;2.20;29.60;;;;;;7393151;19;20481;-80
2023/01/25 00:49:36;;;;;;;37.97;17.83;;;2.20;29.90;;;;;;7369413;19;20007;-80
2023/01/25 00:52:09;;;;;;;38.15;19.02;;;2.30;29.90;;;;;;7371993;19;20034;-80
2023/01/25 00:54:40;;;;;;;37.75;18.38;;;2.30;30.00;;;;;;7371087;19;20013;-80
2023/01/25 00:57:10;;;;;;;34.55;18.38;;;2.20;29.50;;;;;;7372424;19;20014;-79
2023/01/25 00:59:43;;;;;;;36.67;18.38;;;2.20;30.00;;;;;;7371838;19;20026;-80
2023/01/25 01:02:13;;;;;;;33.58;17.85;;;2.20;30.30;;;;;;7393294;19;20011;-79
2023/01/25 01:04:43;;;;;;;34.60;17.27;;;2.20;30.20;;;;;;7369636;19;20035;-79
2023/01/25 01:07:17;;;;;;;34.17;16.75;;;2.20;30.60;;;;;;7369929;19;20503;-79
2023/01/25 01:09:47;;;;;;;35.53;17.90;;;2.10;30.60;;;;;;7369333;19;20025;-79
2023/01/25 01:12:17;;;;;;;34.97;18.45;;;2.10;31.30;;;;;;7369696;19;20011;-79
2023/01/25 01:14:47;;;;;;;32.28;17.35;;;2.20;31.80;;;;;;7370039;19;20023;-78
2023/01/25 01:17:16;;;;;;;38.50;19.27;;;2.10;31.40;;;;;;7391821;19;20470;-79
2023/01/25 01:19:46;;;;;;;35.30;17.88;;;2.10;32.00;;;;;;7367262;19;20013;-79
2023/01/25 01:22:19;;;;;;;35.53;17.88;;;2.10;31.60;;;;;;7368820;19;20095;-79
2023/01/25 01:24:49;;;;;;;39.47;18.77;;;2.10;32.00;;;;;;7369494;19;20011;-79
2023/01/25 01:27:19;;;;;;;37.33;17.90;;;2.20;32.10;;;;;;7370153;19;20006;-80
2023/01/25 01:29:49;;;;;;;39.47;18.65;;;2.10;32.40;;;;;;7367944;19;20031;-80
2023/01/25 01:32:19;;;;;;;43.90;19.98;;;2.00;32.70;;;;;;7391169;19;20329;-80
2023/01/25 01:34:49;;;;;;;43.65;19.52;;;2.00;33.00;;;;;;7368991;19;20143;-80
2023/01/25 01:37:21;;;;;;;38.03;20.90;;;2.00;33.40;;;;;;7369080;19;20010;-79
2023/01/25 01:39:53;;;;;;;41.28;21.17;;;2.00;33.40;;;;;;7368982;19;20013;-80
2023/01/25 01:42:23;;;;;;;43.67;19.38;;;2.00;33.90;;;;;;7369009;19;20030;-80
2023/01/25 01:44:55;;;;;;;47.60;22.17;;;2.00;34.50;;;;;;7368073;19;20014;-80
2023/01/25 01:47:30;;;;;;;40.47;20.45;;;2.00;34.40;;;;;;7390886;19;20011;-80
2023/01/25 01:50:05;;;;;;;45.30;21.25;;;2.00;34.70;;;;;;7367227;19;20070;-80
2023/01/25 01:52:39;;;;;;;37.58;19.50;;;1.90;35.10;;;;;;7367900;19;20010;-80
2023/01/25 01:55:12;;;;;;;44.50;20.60;;;2.00;35.60;;;;;;7368784;19;20014;-80
2023/01/25 01:57:45;;;;;;;40.58;19.05;;;2.00;35.60;;;;;;7365734;19;20758;-79
2023/01/25 02:00:17;;;;;;;41.33;20.13;;;1.90;35.50;;;;;;7366758;19;20383;-79
2023/01/25 02:02:49;;;;;;;43.70;20.88;;;2.00;35.60;;;;;;7368535;19;20006;-79
2023/01/25 02:05:22;;;;;;;41.03;19.02;;;2.00;35.60;;;;;;7390721;19;20006;-79
2023/01/25 02:07:56;;;;;;;44.70;21.02;;;1.90;35.50;;;;;;7367813;19;20509;-79
2023/01/25 02:10:28;;;;;;;45.33;21.25;;;2.00;35.60;;;;;;7365824;19;20014;-80
2023/01/25 02:12:59;;;;;;;42.80;21.95;;;2.00;35.60;;;;;;7367830;19;20017;-79
2023/01/25 02:15:33;;;;;;;43.35;20.15;;;2.00;35.60;;;;;;7368563;19;20014;-80
2023/01/25 02:18:03;;;;;;;44.47;20.73;;;2.00;35.60;;;;;;7365537;19;20113;-79
2023/01/25 02:20:38;;;;;;;44.30;19.92;;;1.90;35.50;;;;;;7387625;19;20459;-79
2023/01/25 02:23:18;;;;;;;42.20;20.58;;;1.90;35.50;;;;;;7369220;19;20002;-78
2023/01/25 02:25:50;;;;;;;43.05;19.95;;;2.00;35.60;;;;;;7367419;19;20374;-80
2023/01/25 02:28:25;;;;;;;43.45;19.83;;;2.00;36.10;;;;;;7366519;19;20011;-79
2023/01/25 02:30:55;;;;;;;38.40;18.48;;;1.90;36.00;;;;;;7366823;19;20022;-79
2023/01/25 02:33:26;;;;;;;41.72;19.55;;;1.90;36.40;;;;;;7366027;19;20090;-78
2023/01/25 02:36:02;;;;;;;42.88;21.77;;;1.90;36.50;;;;;;7368011;19;19996;-80
2023/01/25 02:38:34;;;;;;;42.20;19.77;;;1.90;36.80;;;;;;7388272;19;20022;-79
2023/01/25 02:41:13;;;;;;;40.90;20.30;;;1.90;36.80;;;;;;7367595;19;20011;-79
2023/01/25 02:43:43;;;;;;;45.13;21.83;;;1.80;37.00;;;;;;7366717;19;20015;-79
2023/01/25 02:46:17;;;;;;;44.17;20.00;;;1.90;37.70;;;;;;7367502;19;20009;-80
2023/01/25 02:48:47;;;;;;;45.67;19.98;;;1.80;38.00;;;;;;7365459;19;20015;-79
2023/01/25 02:51:17;;;;;;;44.15;21.08;;;1.80;38.20;;;;;;7367462;19;20475;-79
2023/01/25 02:53:47;;;;;;;42.80;20.13;;;1.80;38.70;;;;;;7366711;19;20010;-79
2023/01/25 02:56:20;;;;;;;44.25;20.05;;;1.80;39.00;;;;;;7388469;19;20850;-79
2023/01/25 02:58:50;;;;;;;45.00;21.00;;;1.80;39.50;;;;;;7366261;19;20534;-79
2023/01/25 03:01:20;;;;;;;44.17;21.08;;;1.80;39.50;;;;;;7367091;19;20422;-80
2023/01/25 03:03:50;;;;;;;44.15;19.60;;;1.90;39.90;;;;;;7365246;19;20450;-79
2023/01/25 03:06:20;;;;;;;46.15;21.85;;;1.90;39.60;;;;;;7367279;19;20158;-80
2023/01/25 03:08:50;;;;;;;43.38;20.88;;;1.90;40.00;;;;;;7364928;19;20018;-80
2023/01/25 03:11:23;;;;;;;45.70;20.17;;;1.90;39.70;;;;;;7392476;19;20011;-80
2023/01/25 03:13:52;;;;;;;45.40;21.35;;;1.90;39.90;;;;;;7370618;19;20011;-79
2023/01/25 03:16:22;;;;;;;42.15;20.20;;;1.90;39.90;;;;;;7373913;19;20010;-80
2023/01/25 03:18:55;;;;;;;47.10;21.50;;;1.90;39.70;;;;;;7371605;19;20546;-80
2023/01/25 03:21:26;;;;;;;40.53;18.38;;;1.90;39.80;;;;;;7372326;19;20489;-79
2023/01/25 03:24:00;;;;;;;47.80;19.92;;;1.90;39.90;;;;;;7374211;19;20022;-80
2023/01/25 03:27:09;;;;;;;;;;;1.90;39.60;;;;;;7395560;19;20046;-80
2023/01/25 03:29:22;;;;;;;38.45;18.13;;;1.90;39.60;;;;;;7371054;19;19915;-80
2023/01/25 03:31:52;;;;;;;41.15;18.90;;;2.00;39.50;;;;;;7372227;19;20015;-80
2023/01/25 03:34:22;;;;;;;41.90;19.80;;;2.00;39.10;;;;;;7372858;19;20010;-80
2023/01/25 03:36:52;;;;;;;39.85;19.23;;;2.00;39.00;;;;;;7373609;19;20007;-80
2023/01/25 03:39:22;;;;;;;41.28;19.95;;;2.00;39.20;;;;;;7371123;19;20018;-80
2023/01/25 03:41:54;;;;;;;45.05;19.67;;;1.90;38.70;;;;;;7372625;19;20475;-80
2023/01/25 03:44:24;;;;;;;38.75;18.52;;;2.00;38.60;;;;;;7393235;19;20043;-80
2023/01/25 03:46:54;;;;;;;38.80;19.30;;;2.00;39.00;;;;;;7372818;19;20018;-80
2023/01/25 03:49:24;;;;;;;38.03;18.25;;;2.00;38.70;;;;;;7370920;19;20038;-80
2023/01/25 03:51:53;;;;;;;36.17;17.65;;;2.00;38.30;;;;;;7371731;19;20015;-79
2023/01/25 03:54:23;;;;;;;38.97;18.50;;;2.00;37.90;;;;;;7371385;19;20047;-79
2023/01/25 03:56:56;;;;;;;37.03;17.25;;;2.00;37.30;;;;;;7373107;19;20010;-80
2023/01/25 03:59:26;;;;;;;35.80;17.45;;;2.00;37.10;;;;;;7392729;19;20103;-79
2023/01/25 04:01:56;;;;;;;35.22;18.05;;;2.00;36.90;;;;;;7371806;19;20455;-80
2023/01/25 04:04:26;;;;;;;39.40;19.33;;;2.00;36.40;;;;;;7371489;19;20010;-80
2023/01/25 04:06:55;;;;;;;37.75;17.00;;;2.10;37.10;;;;;;7371586;19;20011;-79
2023/01/25 04:09:25;;;;;;;35.50;17.75;;;2.00;36.40;;;;;;7369250;19;20013;-79
2023/01/25 04:11:58;;;;;;;36.88;17.30;;;2.00;37.00;;;;;;7372146;19;20053;-80
2023/01/25 04:14:27;;;;;;;33.33;16.55;;;2.00;36.80;;;;;;7392434;19;20532;-79
2023/01/25 04:17:13;;;;;;;30.33;16.38;;;2.00;36.60;;;;;;7372325;19;20044;-79
2023/01/25 04:19:43;;;;;;;35.05;17.25;;;2.00;36.60;;;;;;7370151;19;20602;-79
2023/01/25 04:22:12;;;;;;;32.13;15.45;;;2.00;36.70;;;;;;7370671;19;20010;-80
2023/01/25 04:24:42;;;;;;;30.92;15.82;;;2.00;37.10;;;;;;7370881;19;20039;-79
2023/01/25 04:27:15;;;;;;;30.48;14.80;;;2.00;36.30;;;;;;7372763;19;20007;-80
2023/01/25 04:29:44;;;;;;;30.67;16.40;;;2.00;36.70;;;;;;7369189;19;20433;-80
2023/01/25 04:32:14;;;;;;;28.33;14.43;;;2.00;36.20;;;;;;7393007;19;20005;-78
2023/01/25 04:34:44;;;;;;;25.52;13.35;;;2.00;35.60;;;;;;7369984;19;20014;-79
2023/01/25 04:37:14;;;;;;;29.15;15.85;;;2.00;35.60;;;;;;7372226;19;20006;-77
2023/01/25 04:39:44;;;;;;;30.02;14.50;;;2.10;35.30;;;;;;7370621;19;20462;-78
2023/01/25 04:42:16;;;;;;;26.70;14.10;;;2.10;34.20;;;;;;7371404;19;20521;-78
2023/01/25 04:44:46;;;;;;;31.95;16.67;;;2.10;33.50;;;;;;7370457;19;20011;-78
2023/01/25 04:47:16;;;;;;;28.63;15.45;;;2.10;33.50;;;;;;7392764;19;20546;-78
2023/01/25 04:49:46;;;;;;;26.38;14.95;;;2.10;33.00;;;;;;7368979;19;20046;-78
2023/01/25 04:52:15;;;;;;;26.85;15.23;;;2.10;31.90;;;;;;7370244;19;20007;-79
2023/01/25 04:54:45;;;;;;;27.48;13.27;;;2.10;32.10;;;;;;7369331;19;20015;-78
2023/01/25 04:57:18;;;;;;;22.50;12.75;;;2.10;31.50;;;;;;7371185;19;20089;-79
2023/01/25 04:59:48;;;;;;;26.05;13.10;;;2.10;31.10;;;;;;7367989;19;20025;-81
2023/01/25 05:02:17;;;;;;;23.95;13.25;;;2.10;31.20;;;;;;7392044;19;20712;-79
2023/01/25 05:04:47;;;;;;;31.20;15.55;;;2.10;31.30;;;;;;7369569;19;20006;-80
2023/01/25 05:07:17;;;;;;;24.40;14.88;;;2.10;30.30;;;;;;7368504;19;20503;-79
2023/01/25 05:09:47;;;;;;;25.58;14.02;;;2.10;30.00;;;;;;7368704;19;20455;-79
2023/01/25 05:12:19;;;;;;;24.73;13.48;;;2.10;30.40;;;;;;7369728;19;20006;-79
2023/01/25 05:14:49;;;;;;;26.15;12.93;;;2.10;30.20;;;;;;7367337;19;20013;-79
2023/01/25 05:17:19;;;;;;;22.58;14.10;;;2.10;30.30;;;;;;7392302;19;20487;-80
2023/01/25 05:19:49;;;;;;;26.48;12.88;;;2.10;30.20;;;;;;7368142;19;20059;-79
2023/01/25 05:22:20;;;;;;;22.65;13.05;;;2.10;30.00;;;;;;7370377;19;20016;-79
2023/01/25 05:24:50;;;;;;;23.17;12.20;;;2.10;29.80;;;;;;7367933;19;20015;-79
2023/01/25 05:27:20;;;;;;;20.13;11.48;;;2.10;29.90;;;;;;7370508;19;20003;-79
2023/01/25 05:29:50;;;;;;;23.83;11.77;;;2.10;29.40;;;;;;7367946;19;20550;-80
2023/01/25 05:32:22;;;;;;;23.67;12.55;;;2.00;29.50;;;;;;7390244;19;20010;-80
2023/01/25 05:34:52;;;;;;;20.75;11.45;;;2.10;29.50;;;;;;7368055;19;20010;-79
2023/01/25 05:37:23;;;;;;;24.38;12.23;;;2.00;29.10;;;;;;7369481;19;20006;-79
2023/01/25 05:39:53;;;;;;;23.00;11.10;;;2.00;28.90;;;;;;7368514;19;20053;-79
2023/01/25 05:42:25;;;;;;;20.02;11.63;;;2.10;29.00;;;;;;7368658;19;20455;-80
2023/01/25 05:44:55;;;;;;;20.67;11.65;;;2.00;28.50;;;;;;7367879;19;20020;-79
2023/01/25 05:47:25;;;;;;;20.70;10.48;;;2.00;28.30;;;;;;7390612;19;20544;-79
2023/01/25 05:49:54;;;;;;;16.35;9.63;;;2.00;28.30;;;;;;7367276;19;20011;-79
2023/01/25 05:52:24;;;;;;;18.40;10.35;;;2.00;27.80;;;;;;7368317;19;20166;-79
2023/01/25 05:54:54;;;;;;;16.90;9.63;;;2.00;27.80;;;;;;7368132;19;20085;-79
2023/01/25 05:57:27;;;;;;;19.20;10.40;;;2.00;27.90;;;;;;7367944;19;20086;-79
2023/01/25 05:59:57;;;;;;;19.30;10.55;;;2.00;27.80;;;;;;7366494;19;20035;-80
2023/01/25 06:02:27;;;;;;;18.20;9.90;;;2.00;27.10;;;;;;7389315;19;20030;-79
2023/01/25 06:04:57;;;;;;;20.23;10.57;;;1.90;26.40;;;;;;7367968;19;20417;-79
2023/01/25 06:07:27;;;;;;;19.42;9.75;;;2.00;26.70;;;;;;7368075;19;20031;-80
2023/01/25 06:09:58;;;;;;;16.85;9.52;;;2.00;26.20;;;;;;7366205;19;20489;-79
2023/01/25 06:12:30;;;;;;;17.70;10.05;;;2.00;26.00;;;;;;7367542;19;20105;-79
2023/01/25 06:15:00;;;;;;;19.05;10.02;;;1.90;25.60;;;;;;7367754;19;20010;-78
2023/01/25 06:17:30;;;;;;;18.55;9.05;;;2.00;25.90;;;;;;7388907;19;20020;-79
2023/01/25 06:20:00;;;;;;;18.80;10.98;;;1.90;25.40;;;;;;7367124;19;20042;-80
2023/01/25 06:22:30;;;;;;;15.93;9.38;;;2.00;25.70;;;;;;7366830;19;20895;-79
2023/01/25 06:25:00;;;;;;;17.38;10.45;;;1.90;25.90;;;;;;7366451;19;20007;-79
2023/01/25 06:27:32;;;;;;;16.00;9.80;;;2.00;25.60;;;;;;7367526;19;20006;-79
2023/01/25 06:30:02;;;;;;;18.02;10.40;;;2.00;25.60;;;;;;7366568;19;20178;-79
2023/01/25 06:32:34;;;;;;;18.30;10.45;;;2.00;25.50;;;;;;7388768;19;20025;-80
2023/01/25 06:35:03;;;;;;;15.63;10.43;;;2.00;25.00;;;;;;7365710;19;20014;-78
2023/01/25 06:37:33;;;;;;;17.33;9.77;;;2.00;24.90;;;;;;7366970;19;20003;-80
2023/01/25 06:40:03;;;;;;;19.08;9.82;;;2.00;24.50;;;;;;7366129;19;20010;-79
2023/01/25 06:42:36;;;;;;;18.90;10.18;;;2.10;24.60;;;;;;7367077;19;20014;-79
2023/01/25 06:45:07;;;;;;;18.83;10.68;;;2.00;24.50;;;;;;7369956;19;20078;-79
2023/01/25 06:47:37;;;;;;;17.83;10.32;;;2.10;24.60;;;;;;7374369;19;20424;-80
2023/01/25 06:50:09;;;;;;;19.67;10.18;;;2.00;24.50;;;;;;7394788;19;20471;-79
2023/01/25 06:52:38;;;;;;;16.13;9.27;;;2.00;24.20;;;;;;7377894;19;20531;-79
2023/01/25 06:55:12;;;;;;;17.35;9.38;;;2.00;23.70;;;;;;7373575;19;20007;-79
2023/01/25 06:57:45;;;;;;;18.48;9.80;;;2.00;24.00;;;;;;7372844;19;20011;-78
2023/01/25 07:00:16;;;;;;;17.63;9.27;;;2.00;24.00;;;;;;7371689;19;20017;-79
2023/01/25 07:02:46;;;;;;;19.48;10.55;;;2.00;23.90;;;;;;7375389;19;20013;-78
2023/01/25 07:05:16;;;;;;;15.77;9.85;;;2.00;23.20;;;;;;7396293;19;20007;-78
2023/01/25 07:07:47;;;;;;;18.77;10.27;;;2.00;23.30;;;;;;7373289;19;20090;-79
2023/01/25 07:10:17;;;;;;;17.38;9.43;;;2.00;23.10;;;;;;7372962;19;20079;-79
2023/01/25 07:12:50;;;;;;;17.48;9.25;;;2.00;23.00;;;;;;7372214;19;20018;-79
2023/01/25 07:15:19;;;;;;;17.52;10.18;;;2.00;22.50;;;;;;7369888;19;20013;-79
2023/01/25 07:17:49;;;;;;;18.48;9.73;;;2.00;23.20;;;;;;7373582;19;20010;-79
2023/01/25 07:20:19;;;;;;;15.90;8.93;;;2.00;23.60;;;;;;7393443;19;20017;-79
2023/01/25 07:22:49;;;;;;;19.17;9.93;;;2.00;23.70;;;;;;7372511;19;20015;-78
2023/01/25 07:25:19;;;;;;;16.55;9.05;;;2.00;23.30;;;;;;7372059;19;20006;-79
2023/01/25 07:27:51;;;;;;;20.17;9.73;;;2.00;23.20;;;;;;7375430;19;20022;-80
2023/01/25 07:30:21;;;;;;;20.13;9.60;;;2.00;23.20;;;;;;7368515;19;20078;-79
2023/01/25 07:32:51;;;;;;;20.38;11.45;;;2.00;23.40;;;;;;7371196;19;20051;-78
2023/01/25 07:35:21;;;;;;;20.63;10.05;;;2.00;23.80;;;;;;7390831;19;20011;-79
2023/01/25 07:37:51;;;;;;;20.98;11.15;;;2.00;23.80;;;;;;7370335;19;20021;-79
2023/01/25 07:40:23;;;;;;;17.80;9.30;;;2.10;23.80;;;;;;7370305;19;20343;-78
2023/01/25 07:42:55;;;;;;;15.88;9.82;;;2.10;23.00;;;;;;7372694;19;20017;-78
2023/01/25 07:45:29;;;;;;;15.27;8.65;;;2.00;22.90;;;;;;7370807;19;20011;-78
2023/01/25 07:48:00;;;;;;;15.60;8.43;;;2.00;22.70;;;;;;7371683;19;20407;-78
2023/01/25 07:50:30;;;;;;;16.10;9.65;;;1.90;22.20;;;;;;7389391;19;20080;-79
2023/01/25 07:53:00;;;;;;;17.15;9.60;;;2.00;23.10;;;;;;7375122;19;20011;-80
2023/01/25 07:55:29;;;;;;;14.98;9.25;;;2.00;23.60;;;;;;7370183;19;20248;-79
2023/01/25 07:58:02;;;;;;;16.13;8.93;;;2.10;22.80;;;;;;7368521;19;20094;-80
2023/01/25 08:00:32;;;;;;;16.30;8.60;;;2.00;23.30;;;;;;7369238;19;20529;-80
2023/01/25 08:03:01;;;;;;;15.38;8.43;;;2.00;22.80;;;;;;7371082;19;20015;-80
2023/01/25 08:05:31;;;;;;;16.25;9.07;;;2.00;23.50;;;;;;7392151;19;20029;-78
2023/01/25 08:08:01;;;;;;;14.27;8.77;;;2.00;23.50;;;;;;7371933;19;20014;-79
2023/01/25 08:10:31;;;;;;;15.32;8.50;;;2.00;22.60;;;;;;7369480;19;20014;-78
2023/01/25 08:13:03;;;;;;;14.00;8.50;;;2.00;22.50;;;;;;7370548;19;20014;-78
2023/01/25 08:15:33;;;;;;;15.02;8.38;;;2.00;22.60;;;;;;7364383;19;20106;-77
2023/01/25 08:18:03;;;;;;;13.73;7.90;;;2.00;21.70;;;;;;7371179;19;20090;-79
2023/01/25 08:20:33;;;;;;;15.40;8.15;;;1.90;21.50;;;;;;7389121;19;20021;-79
2023/01/25 08:23:03;;;;;;;12.52;7.72;;;1.90;22.30;;;;;;7369118;19;20028;-79
2023/01/25 08:25:33;;;;;;;12.80;7.70;;;1.90;21.80;;;;;;7368575;19;20010;-79
2023/01/25 08:28:06;;;;;;;14.93;8.32;;;1.90;21.30;;;;;;7368518;19;20466;-79
2023/01/25 08:30:38;;;;;;;15.98;8.45;;;1.90;21.30;;;;;;7368275;19;20010;-76
2023/01/25 08:33:24;;;;;;;16.88;8.55;;;1.90;21.30;;;;;;7369106;19;20381;-78
2023/01/25 08:35:57;;;;;;;17.50;9.07;;;2.00;20.30;;;;;;7368142;19;20085;-78
2023/01/25 08:38:28;;;;;;;15.02;7.97;;;2.10;20.30;;;;;;7390562;19;20011;-78
2023/01/25 08:40:57;;;;;;;13.90;8.18;;;2.00;19.50;;;;;;7368826;19;20031;-79
2023/01/25 08:43:30;;;;;;;15.80;8.07;;;2.00;19.20;;;;;;7369192;19;20010;-79
2023/01/25 08:46:00;;;;;;;14.05;7.80;;;2.00;19.10;;;;;;7368565;19;20009;-79
2023/01/25 08:48:30;;;;;;;15.75;8.32;;;2.00;18.80;;;;;;7369702;19;20011;-79
2023/01/25 08:51:00;;;;;;;16.02;8.63;;;2.10;19.20;;;;;;7366944;19;20006;-79
2023/01/25 08:53:31;;;;;;;13.02;7.90;;;2.20;18.90;;;;;;7392101;19;20078;-79
2023/01/25 08:56:05;;;;;;;16.05;9.00;;;2.10;17.70;;;;;;7367161;19;20010;-80
2023/01/25 08:58:39;;;;;;;13.35;7.72;;;2.10;17.70;;;;;;7367623;19;20014;-79
2023/01/25 09:01:10;;;;;;;;;;;2.10;17.80;;;;;;7369082;19;20438;-78
2023/01/25 09:03:41;;;;;;;14.07;8.65;;;2.10;17.70;;;;;;7370055;19;19907;-78
2023/01/25 09:06:13;;;;;;;16.35;9.05;;;2.10;17.80;;;;;;7367998;19;20010;-79
2023/01/25 09:08:43;;;;;;;12.88;8.13;;;2.20;17.80;;;;;;7368386;19;20022;-79
2023/01/25 09:11:15;;;;;;;14.98;9.07;;;2.20;17.80;;;;;;7390280;19;20014;-79
2023/01/25 09:13:47;;;;;;;14.57;8.10;;;2.20;17.80;;;;;;7368366;19;20179;-79
2023/01/25 09:16:26;;;;;;;18.30;9.85;;;2.20;17.80;;;;;;7367000;19;20027;-80
2023/01/25 09:18:58;;;;;;;14.50;8.07;;;2.20;17.80;;;;;;7368318;19;20002;-79
2023/01/25 09:21:28;;;;;;;15.20;8.10;;;2.20;17.10;;;;;;7366683;19;20018;-79
2023/01/25 09:23:58;;;;;;;14.82;8.38;;;2.20;17.00;;;;;;7368970;19;20015;-78
2023/01/25 09:26:39;;;;;;;14.20;8.07;;;2.20;17.80;;;;;;7369034;19;20011;-79
2023/01/25 09:29:15;;;;;;;16.38;8.98;;;2.10;16.30;;;;;;7389051;19;20007;-79
2023/01/25 09:31:45;;;;;;;18.88;9.75;;;2.20;17.40;;;;;;7366638;19;20074;-79
2023/01/25 09:34:17;;;;;;;17.38;10.50;;;2.20;16.80;;;;;;7368065;19;20035;-79
2023/01/25 09:36:46;;;;;;;15.65;9.15;;;2.30;17.30;;;;;;7367985;19;20086;-78
2023/01/25 09:39:18;;;;;;;17.38;8.68;;;2.30;16.70;;;;;;7367526;19;20006;-80
2023/01/25 09:42:08;;;;;;;17.35;8.70;;;2.30;16.10;;;;;;7367924;19;20094;-79
2023/01/25 09:45:04;;;;;;;16.23;9.27;;;2.30;15.70;;;;;;7367170;19;20055;-79
2023/01/25 09:47:44;;;;;;;17.38;8.60;;;2.30;15.80;;;;;;7387790;19;20026;-79
2023/01/25 09:50:32;;;;;;;14.98;8.30;;;2.30;14.80;;;;;;7363354;19;20361;-79
2023/01/25 09:53:23;;;;;;;15.48;8.05;;;2.30;15.20;;;;;;7365499;19;20781;-80
2023/01/25 09:55:57;;;;;;;15.40;8.57;;;2.30;15.10;;;;;;7364618;19;20631;-79
2023/01/25 09:58:33;;;;;;;;;;;2.30;14.40;;;;;;7365975;19;20098;-79
2023/01/25 10:01:19;;;;;;;17.33;9.18;;;2.20;14.00;;;;;;7366744;19;19982;-78
2023/01/25 10:04:13;;;;;;;14.30;8.43;;;2.20;13.90;;;;;;7366215;19;20052;-79
2023/01/25 10:06:46;;;;;;;14.80;8.38;;;2.30;14.10;;;;;;7366493;19;20007;-79
2023/01/25 10:09:41;;;;;;;16.33;9.07;;;2.30;13.70;;;;;;7364860;19;20018;-79
2023/01/25 10:12:17;;;;;;;15.43;8.77;;;2.30;13.10;;;;;;7365485;19;20094;-79
2023/01/25 10:14:47;;;;;;;15.23;8.80;;;2.30;12.90;;;;;;7366529;19;20045;-80
2023/01/25 10:17:27;;;;;;;15.20;8.70;;;2.30;12.50;;;;;;7387763;19;20014;-79
2023/01/25 10:20:09;;;;;;;17.23;9.43;;;2.30;12.70;;;;;;7362277;19;20014;-79
2023/01/25 10:22:45;;;;;;;17.52;9.88;;;2.40;12.50;;;;;;7366134;19;20010;-79
2023/01/25 10:25:36;;;;;;;14.95;8.65;;;2.40;12.20;;;;;;7365219;19;20085;-78
2023/01/25 10:28:18;;;;;;;15.73;8.50;;;2.20;10.80;;;;;;7364087;19;20025;-79
2023/01/25 10:30:56;;;;;;;16.95;9.30;;;2.30;12.10;;;;;;7364666;19;20027;-79
2023/01/25 10:33:31;;;;;;;19.95;10.10;;;2.30;11.80;;;;;;7364307;19;20022;-79
2023/01/25 10:36:06;;;;;;;18.13;9.07;;;2.30;12.20;;;;;;7365261;19;20117;-78
2023/01/25 10:38:41;;;;;;;14.75;8.35;;;2.20;11.80;;;;;;7376585;19;20053;-78
2023/01/25 10:41:16;;;;;;;16.38;9.02;;;2.20;12.00;;;;;;7387793;19;20013;-79
2023/01/25 10:43:45;;;;;;;15.52;8.55;;;2.20;12.80;;;;;;7364757;19;20011;-79
2023/01/25 10:46:25;;;;;;;16.38;10.07;;;2.20;12.30;;;;;;7365246;19;20011;-79
2023/01/25 10:48:57;;;;;;;14.98;9.02;;;2.30;12.50;;;;;;7364113;19;20006;-79
2023/01/25 10:51:32;;;;;;;16.98;9.75;;;2.30;12.40;;;;;;7365707;19;20015;-79
2023/01/25 10:54:04;;;;;;;19.35;9.68;;;2.40;12.40;;;;;;7365900;19;20015;-79
2023/01/25 10:56:36;;;;;;;15.23;9.02;;;2.30;10.90;;;;;;7386507;19;20085;-77
2023/01/25 10:59:19;;;;;;;18.38;9.45;;;2.30;12.00;;;;;;7364645;19;20061;-78
2023/01/25 11:01:49;;;;;;;17.90;9.30;;;2.40;12.20;;;;;;7366045;19;20478;-77
2023/01/25 11:04:34;;;;;;;19.67;9.73;;;2.20;10.90;;;;;;7365255;19;20011;-79
2023/01/25 11:07:05;;;;;;;17.75;9.50;;;2.20;11.70;;;;;;7365454;19;20006;-78
2023/01/25 11:09:38;;;;;;;16.77;9.10;;;2.10;11.70;;;;;;7365676;19;20024;-78
2023/01/25 11:12:19;;;;;;;18.15;9.98;;;2.10;12.50;;;;;;7366665;19;20387;-78
2023/01/25 11:14:53;;;;;;;16.05;8.95;;;2.10;12.50;;;;;;7366671;19;20014;-78
2023/01/25 11:17:29;;;;;;;17.13;9.43;;;2.10;12.70;;;;;;7384712;19;20010;-78
2023/01/25 11:20:19;;;;;;;19.77;9.80;;;2.00;12.00;;;;;;7364768;19;20792;-75
2023/01/25 11:22:55;;;;;;;18.80;9.73;;;2.10;13.50;;;;;;7365536;19;20019;-79
2023/01/25 11:25:30;;;;;;;17.17;9.27;;;2.10;13.10;;;;;;7365658;19;20355;-79
2023/01/25 11:28:17;;;;;;;19.92;8.80;;;2.00;12.40;;;;;;7367181;19;20014;-79
2023/01/25 11:30:48;;;;;;;19.27;9.70;;;2.10;12.40;;;;;;7365998;19;20065;-78
2023/01/25 11:33:20;;;;;;;14.98;8.43;;;2.10;12.80;;;;;;7372724;19;20007;-77
2023/01/25 11:36:11;;;;;;;16.83;9.73;;;2.10;12.00;;;;;;7372783;19;20024;-77
2023/01/25 11:38:48;;;;;;;18.95;9.45;;;2.10;12.60;;;;;;7371568;19;20015;-78
2023/01/25 11:41:26;;;;;;;18.67;10.20;;;2.00;11.40;;;;;;7394127;19;20014;-78
2023/01/25 11:44:15;;;;;;;16.83;9.85;;;2.00;12.30;;;;;;7372479;19;20025;-79
2023/01/25 11:46:57;;;;;;;18.70;9.52;;;2.10;12.80;;;;;;7371742;19;20018;-79
2023/01/25 11:49:40;;;;;;;17.95;10.05;;;2.20;12.40;;;;;;7369512;19;20011;-78
2023/01/25 11:52:25;;;;;;;21.13;10.60;;;2.10;12.90;;;;;;7373223;19;20007;-81
2023/01/25 11:55:07;;;;;;;23.00;11.37;;;2.20;12.40;;;;;;7371020;19;20491;-78
2023/01/25 11:57:56;;;;;;;21.20;11.13;;;2.20;12.40;;;;;;7369168;19;20017;-79
2023/01/25 12:00:42;;;;;;;19.35;10.38;;;2.20;11.40;;;;;;7369477;19;20006;-78
2023/01/25 12:03:35;;;;;;;18.73;8.98;;;2.10;11.20;;;;;;7370188;19;20057;-79
2023/01/25 12:06:13;;;;;;;19.15;9.23;;;2.10;10.70;;;;;;7371009;19;20014;-79
2023/01/25 12:09:11;;;;;;;16.13;8.45;;;2.10;11.30;;;;;;7369565;19;20025;-79
2023/01/25 12:11:56;;;;;;;20.75;9.65;;;2.10;11.10;;;;;;7370981;19;20400;-80
2023/01/25 12:14:38;;;;;;;17.00;9.00;;;2.10;11.10;;;;;;7392484;19;20014;-78
2023/01/25 12:17:25;;;;;;;20.02;9.40;;;2.10;11.40;;;;;;7370240;19;20007;-80
2023/01/25 12:20:10;;;;;;;17.25;8.88;;;2.20;12.00;;;;;;7369873;19;20089;-80
2023/01/25 12:23:03;;;;;;;18.02;9.20;;;2.00;9.70;;;;;;7370057;19;20078;-78
2023/01/25 12:25:48;;;;;;;17.77;9.43;;;2.10;12.00;;;;;;7371220;19;20027;-79
2023/01/25 12:28:22;;;;;;;17.98;9.75;;;2.20;11.60;;;;;;7371961;19;20017;-78
2023/01/25 12:30:56;;;;;;;19.48;10.35;;;2.10;12.10;;;;;;7371351;19;20011;-79
2023/01/25 12:33:33;;;;;;;19.48;9.82;;;2.10;11.40;;;;;;7369381;19;20463;-80
2023/01/25 12:36:09;;;;;;;19.88;10.10;;;2.10;11.40;;;;;;7370731;19;20015;-80
2023/01/25 12:38:43;;;;;;;20.35;9.90;;;2.10;12.30;;;;;;7370100;19;20790;-80
2023/01/25 12:41:27;;;;;;;19.67;10.43;;;2.10;12.60;;;;;;7393564;19;20009;-79
2023/01/25 12:44:05;;;;;;;19.80;10.43;;;2.10;12.10;;;;;;7369512;19;20632;-80
2023/01/25 12:46:41;;;;;;;17.95;10.07;;;2.10;12.80;;;;;;7363576;19;20016;-80
2023/01/25 12:49:22;;;;;;;19.70;10.05;;;2.10;12.70;;;;;;7369262;19;20017;-79
2023/01/25 12:51:55;;;;;;;20.58;10.30;;;2.00;12.60;;;;;;7369441;19;20015;-80
2023/01/25 12:54:29;;;;;;;22.90;11.23;;;2.10;12.10;;;;;;7366489;19;20015;-77
2023/01/25 12:57:12;;;;;;;17.98;10.13;;;2.00;11.90;;;;;;7365847;19;20039;-77
2023/01/25 12:59:51;;;;;;;19.95;11.02;;;2.10;13.20;;;;;;7369443;19;20073;-78
2023/01/25 13:02:38;;;;;;;22.50;10.73;;;2.10;13.40;;;;;;7387247;19;20014;-78
2023/01/25 13:05:20;;;;;;;19.55;10.88;;;2.10;13.10;;;;;;7367708;19;20010;-78
2023/01/25 13:07:59;;;;;;;20.60;10.20;;;2.10;13.00;;;;;;7368726;19;20014;-78
2023/01/25 13:10:36;;;;;;;19.73;9.63;;;2.10;11.90;;;;;;7365955;19;20032;-79
2023/01/25 13:13:22;;;;;;;18.02;9.20;;;2.10;12.40;;;;;;7366695;19;20091;-79
2023/01/25 13:15:52;;;;;;;19.38;9.40;;;2.00;13.40;;;;;;7366987;19;20014;-79